Time;durP1;ratioP1;P1;durP2;ratioP2;P2;SDS_P1;SDS_P2;PMS_P1;PMS_P2;Temp;Humidity;BMP_temperature;BMP_pressure;BME280_temperature;BME280_humidity;BME280_pressure;Samples;Min_cycle;Max_cycle;Signal;HPM_P1;HPM_P2
2021/12/18 00:00:11;;;;;;;9.02;8.07;;;18.00;99.90;;;;;;1034302;28;20519;-71
2021/12/18 00:00:42;;;;;;;8.13;7.32;;;18.00;99.90;;;;;;1034965;28;20572;-73
2021/12/18 00:01:15;;;;;;;8.65;7.78;;;18.00;99.90;;;;;;1032530;28;20109;-72
2021/12/18 00:01:45;;;;;;;9.60;8.70;;;18.00;99.90;;;;;;1034642;28;20350;-71
2021/12/18 00:02:16;;;;;;;8.03;7.23;;;18.00;99.90;;;;;;1034267;28;20014;-70
2021/12/18 00:02:47;;;;;;;9.37;8.43;;;18.00;99.90;;;;;;1035123;28;20018;-71
2021/12/18 00:03:17;;;;;;;8.57;7.67;;;18.00;99.90;;;;;;1034319;28;20149;-71
2021/12/18 00:03:48;;;;;;;9.27;8.27;;;18.00;99.90;;;;;;1030365;28;20023;-70
2021/12/18 00:04:19;;;;;;;8.33;7.33;;;17.90;99.90;;;;;;1030018;28;20014;-71
2021/12/18 00:04:50;;;;;;;8.07;7.27;;;17.90;99.90;;;;;;1029478;28;20030;-73
2021/12/18 00:05:21;;;;;;;8.27;7.20;;;17.90;99.90;;;;;;1031809;28;20931;-71
2021/12/18 00:05:51;;;;;;;8.57;7.72;;;17.90;99.90;;;;;;1034280;28;20014;-71
2021/12/18 00:06:22;;;;;;;8.13;7.33;;;17.90;99.90;;;;;;1034274;28;20108;-71
2021/12/18 00:06:54;;;;;;;7.87;7.07;;;17.90;99.90;;;;;;1030702;28;20018;-72
2021/12/18 00:07:24;;;;;;;8.30;7.40;;;17.90;99.90;;;;;;1030189;28;20030;-71
2021/12/18 00:07:55;;;;;;;9.20;8.23;;;17.90;99.90;;;;;;1030783;28;20026;-71
2021/12/18 00:08:26;;;;;;;7.93;7.13;;;17.90;99.90;;;;;;1033977;28;20087;-71
2021/12/18 00:08:58;;;;;;;7.93;7.13;;;17.90;99.90;;;;;;1032436;28;20036;-73
2021/12/18 00:09:31;;;;;;;8.40;7.60;;;17.90;99.90;;;;;;1029968;28;20019;-71
2021/12/18 00:10:03;;;;;;;7.78;6.97;;;17.90;99.90;;;;;;1026271;28;20030;-72
2021/12/18 00:10:34;;;;;;;8.20;7.35;;;17.90;99.90;;;;;;1026814;28;20018;-72
2021/12/18 00:11:06;;;;;;;7.47;6.67;;;17.90;99.90;;;;;;1026844;28;20050;-71
2021/12/18 00:11:36;;;;;;;8.68;7.28;;;17.90;99.90;;;;;;1029110;28;20077;-73
2021/12/18 00:12:09;;;;;;;8.30;7.50;;;17.90;99.90;;;;;;1029785;28;20081;-71
2021/12/18 00:12:47;;;;;;;7.90;7.10;;;17.90;99.90;;;;;;1028509;28;20014;-73
2021/12/18 00:13:18;;;;;;;8.25;7.43;;;17.90;99.90;;;;;;1033058;28;20056;-71
2021/12/18 00:13:49;;;;;;;8.00;7.20;;;17.90;99.90;;;;;;1039062;28;20014;-71
2021/12/18 00:14:20;;;;;;;8.57;7.75;;;17.90;99.90;;;;;;1036537;28;20073;-72
2021/12/18 00:14:51;;;;;;;8.30;7.40;;;17.90;99.90;;;;;;1035377;28;20042;-71
2021/12/18 00:15:23;;;;;;;8.63;7.83;;;17.90;99.90;;;;;;1034364;28;20854;-72
2021/12/18 00:15:57;;;;;;;7.40;6.70;;;17.90;99.90;;;;;;1034566;28;20029;-71
2021/12/18 00:16:27;;;;;;;7.57;6.82;;;17.90;99.90;;;;;;1027834;28;20028;-72
2021/12/18 00:16:58;;;;;;;8.10;7.30;;;17.90;99.90;;;;;;1029816;28;20022;-72
2021/12/18 00:17:29;;;;;;;8.27;7.37;;;17.90;99.90;;;;;;1025877;28;20049;-73
2021/12/18 00:17:59;;;;;;;8.17;7.30;;;17.90;99.90;;;;;;1022891;28;20628;-72
2021/12/18 00:18:31;;;;;;;7.40;6.70;;;17.90;99.90;;;;;;1026263;28;20031;-72
2021/12/18 00:19:02;;;;;;;8.45;7.30;;;17.90;99.90;;;;;;1023649;28;20162;-72
2021/12/18 00:19:32;;;;;;;9.15;7.10;;;17.90;99.90;;;;;;1029407;28;20014;-73
2021/12/18 00:20:03;;;;;;;8.13;7.03;;;17.90;99.90;;;;;;1034117;28;20026;-72
2021/12/18 00:20:37;;;;;;;7.95;7.15;;;17.90;99.90;;;;;;1032384;28;20049;-72
2021/12/18 00:21:09;;;;;;;7.45;6.70;;;17.90;99.90;;;;;;1033974;28;20064;-71
2021/12/18 00:21:39;;;;;;;8.45;7.65;;;17.90;99.90;;;;;;1034911;28;20568;-72
2021/12/18 00:22:10;;;;;;;6.93;6.23;;;17.90;99.90;;;;;;1030278;28;20410;-72
2021/12/18 00:22:41;;;;;;;7.07;6.37;;;17.90;99.90;;;;;;1030649;28;20615;-71
2021/12/18 00:23:12;;;;;;;7.20;6.47;;;17.90;99.90;;;;;;1030719;28;20117;-71
2021/12/18 00:23:42;;;;;;;8.30;7.50;;;17.90;99.90;;;;;;1030435;28;20041;-71
2021/12/18 00:24:19;;;;;;;7.03;6.33;;;17.90;99.90;;;;;;1033864;28;20025;-73
2021/12/18 00:24:52;;;;;;;8.02;6.72;;;17.80;99.90;;;;;;1031639;28;20037;-72
2021/12/18 00:25:24;;;;;;;7.18;6.47;;;17.80;99.90;;;;;;1029933;28;20117;-71
2021/12/18 00:25:54;;;;;;;7.55;6.78;;;17.90;99.90;;;;;;1026695;28;20026;-72
2021/12/18 00:26:29;;;;;;;7.60;6.87;;;17.90;99.90;;;;;;1027037;28;20041;-71
2021/12/18 00:27:00;;;;;;;6.82;6.13;;;17.80;99.90;;;;;;1027584;28;20105;-70
2021/12/18 00:27:31;;;;;;;6.37;5.77;;;17.80;99.90;;;;;;1030138;28;20137;-72
2021/12/18 00:28:01;;;;;;;7.33;6.63;;;17.80;99.90;;;;;;1029546;28;20409;-73
2021/12/18 00:28:32;;;;;;;7.40;6.13;;;17.80;99.90;;;;;;1028773;28;20030;-71
2021/12/18 00:29:03;;;;;;;7.47;6.73;;;17.80;99.90;;;;;;1033885;28;20021;-71
2021/12/18 00:29:34;;;;;;;7.53;6.82;;;17.80;99.90;;;;;;1034774;28;20568;-71
2021/12/18 00:30:06;;;;;;;7.43;6.73;;;17.80;99.90;;;;;;1034264;28;20512;-71
2021/12/18 00:30:38;;;;;;;6.93;6.32;;;17.80;99.90;;;;;;1030616;28;20490;-71
2021/12/18 00:31:08;;;;;;;7.35;6.60;;;17.80;99.90;;;;;;1029600;28;20033;-70
2021/12/18 00:31:39;;;;;;;6.87;6.17;;;17.80;99.90;;;;;;1029658;28;20022;-72
2021/12/18 00:32:10;;;;;;;7.10;6.20;;;17.80;99.90;;;;;;1028014;28;20010;-71
2021/12/18 00:32:40;;;;;;;6.97;6.27;;;17.80;99.90;;;;;;1029369;28;20650;-72
2021/12/18 00:33:11;;;;;;;7.10;6.40;;;17.80;99.90;;;;;;1030437;28;20015;-70
2021/12/18 00:33:42;;;;;;;7.63;6.93;;;17.80;99.90;;;;;;1034844;28;20026;-71
2021/12/18 00:34:12;;;;;;;6.73;6.03;;;17.80;99.90;;;;;;1034165;28;20568;-72
2021/12/18 00:34:43;;;;;;;6.97;6.27;;;17.80;99.90;;;;;;1034408;28;20153;-70
2021/12/18 00:35:13;;;;;;;7.30;6.50;;;17.80;99.90;;;;;;1029792;28;20529;-71
2021/12/18 00:35:44;;;;;;;8.17;6.50;;;17.80;99.90;;;;;;1029515;28;20117;-71
2021/12/18 00:36:15;;;;;;;8.60;6.97;;;17.80;99.90;;;;;;1028429;28;20417;-70
2021/12/18 00:36:45;;;;;;;7.40;6.53;;;17.80;99.90;;;;;;1030556;28;20779;-70
2021/12/18 00:37:16;;;;;;;7.23;6.53;;;17.80;99.90;;;;;;1030018;28;20406;-70
2021/12/18 00:37:46;;;;;;;7.50;6.37;;;17.80;99.90;;;;;;1030687;28;20133;-70
2021/12/18 00:38:17;;;;;;;6.60;5.90;;;17.80;99.90;;;;;;1030307;28;20022;-71
2021/12/18 00:38:47;;;;;;;6.83;6.13;;;17.80;99.90;;;;;;1028246;28;20543;-72
2021/12/18 00:39:18;;;;;;;6.40;5.47;;;17.80;99.90;;;;;;1031636;28;20129;-70
2021/12/18 00:39:57;;;;;;;7.67;6.63;;;17.80;99.90;;;;;;1029284;28;20108;-74
2021/12/18 00:40:31;;;;;;;6.65;6.05;;;17.80;99.90;;;;;;1034463;28;20080;-71
2021/12/18 00:41:59;;;;;;;7.38;6.65;;;17.70;99.90;;;;;;1034050;28;20017;-70
2021/12/18 00:42:48;;;;;;;7.25;6.55;;;17.70;99.90;;;;;;1033801;28;20143;-71
2021/12/18 00:43:32;;;;;;;6.80;6.10;;;17.70;99.90;;;;;;1033981;28;20096;-71
2021/12/18 00:44:04;;;;;;;6.78;5.85;;;17.80;99.90;;;;;;1032575;28;20084;-71
2021/12/18 00:44:35;;;;;;;6.30;5.70;;;17.70;99.90;;;;;;1033576;28;20021;-71
2021/12/18 00:45:14;;;;;;;7.10;6.38;;;17.70;99.90;;;;;;1034116;28;20730;-72
2021/12/18 00:45:45;;;;;;;6.85;6.15;;;17.70;99.90;;;;;;1030743;28;20015;-71
2021/12/18 00:46:15;;;;;;;6.80;5.90;;;17.70;99.90;;;;;;1031557;28;20091;-71
2021/12/18 00:46:46;;;;;;;6.40;5.73;;;17.70;99.90;;;;;;1035400;28;20021;-71
2021/12/18 00:47:17;;;;;;;6.43;5.80;;;17.70;99.90;;;;;;1037784;28;20017;-73
2021/12/18 00:47:48;;;;;;;7.10;6.23;;;17.70;99.90;;;;;;1033307;28;20026;-71
2021/12/18 00:48:18;;;;;;;6.40;5.60;;;17.70;99.90;;;;;;1034998;28;20060;-70
2021/12/18 00:48:49;;;;;;;6.83;5.93;;;17.70;99.90;;;;;;1035017;28;20021;-70
2021/12/18 00:49:20;;;;;;;6.57;5.87;;;17.70;99.90;;;;;;1033966;28;20029;-72
2021/12/18 00:49:50;;;;;;;6.13;5.50;;;17.70;99.90;;;;;;1034937;28;20014;-70
2021/12/18 00:50:24;;;;;;;6.67;5.97;;;17.70;99.90;;;;;;1033408;28;20026;-70
2021/12/18 00:50:55;;;;;;;6.20;5.53;;;17.70;99.90;;;;;;1034436;28;20117;-71
2021/12/18 00:51:26;;;;;;;6.13;5.53;;;17.70;99.90;;;;;;1032376;28;20024;-70
2021/12/18 00:51:56;;;;;;;6.63;5.93;;;17.70;99.90;;;;;;1034243;28;20010;-72
2021/12/18 00:52:28;;;;;;;6.00;5.40;;;17.70;99.90;;;;;;1034092;28;20022;-71
2021/12/18 00:52:58;;;;;;;6.43;5.82;;;17.70;99.90;;;;;;1030659;28;20117;-70
2021/12/18 00:53:29;;;;;;;6.07;5.47;;;17.70;99.90;;;;;;1034089;28;20029;-71
2021/12/18 00:54:00;;;;;;;5.87;5.13;;;17.70;99.90;;;;;;1034383;28;20026;-71
2021/12/18 00:54:31;;;;;;;6.20;5.60;;;17.70;99.90;;;;;;1033910;28;20026;-70
2021/12/18 00:55:03;;;;;;;6.50;5.40;;;17.70;99.90;;;;;;1033892;28;20029;-71
2021/12/18 00:55:36;;;;;;;6.03;5.47;;;17.70;99.90;;;;;;1028991;28;20032;-71
2021/12/18 00:56:06;;;;;;;6.40;5.55;;;17.70;99.90;;;;;;1029715;28;20063;-71
2021/12/18 00:56:37;;;;;;;6.63;5.77;;;17.70;99.90;;;;;;1027164;28;20098;-71
2021/12/18 00:57:08;;;;;;;6.03;5.43;;;17.70;99.90;;;;;;1030072;28;20037;-71
2021/12/18 00:57:39;;;;;;;6.00;5.10;;;17.70;99.90;;;;;;1034789;28;20108;-71
2021/12/18 00:58:09;;;;;;;6.40;5.80;;;17.70;99.90;;;;;;1033828;28;20037;-71
2021/12/18 00:58:40;;;;;;;5.97;5.37;;;17.70;99.90;;;;;;1034788;28;20441;-71
2021/12/18 00:59:11;;;;;;;5.87;4.90;;;17.70;99.90;;;;;;1031658;28;20496;-75
2021/12/18 00:59:41;;;;;;;6.30;5.50;;;17.70;99.90;;;;;;1034985;28;20144;-71
2021/12/18 01:00:15;;;;;;;6.03;5.33;;;17.70;99.90;;;;;;1034155;28;20022;-71
2021/12/18 01:00:48;;;;;;;6.18;5.50;;;17.70;99.90;;;;;;1034487;28;20022;-71
2021/12/18 01:01:21;;;;;;;6.93;5.53;;;17.70;99.90;;;;;;1034039;28;20018;-71
2021/12/18 01:01:51;;;;;;;5.90;5.28;;;17.70;99.90;;;;;;1035084;28;20052;-71
2021/12/18 01:02:22;;;;;;;6.30;5.53;;;17.70;99.90;;;;;;1038069;28;20044;-70
2021/12/18 01:02:58;;;;;;;7.00;5.83;;;17.70;99.90;;;;;;1034449;28;20385;-72
2021/12/18 01:03:29;;;;;;;6.45;5.75;;;17.70;99.90;;;;;;1032260;28;20064;-70
2021/12/18 01:04:00;;;;;;;6.83;6.13;;;17.70;99.90;;;;;;1029931;28;20027;-71
2021/12/18 01:04:31;;;;;;;6.38;5.72;;;17.70;99.90;;;;;;1027139;28;20090;-71
2021/12/18 01:05:02;;;;;;;5.70;5.13;;;17.70;99.90;;;;;;1025998;28;20019;-70
2021/12/18 01:05:33;;;;;;;5.95;4.90;;;17.70;99.90;;;;;;1027127;28;20082;-71
2021/12/18 01:06:04;;;;;;;6.38;5.72;;;17.70;99.90;;;;;;1030322;28;20030;-70
2021/12/18 01:06:34;;;;;;;6.70;6.00;;;17.70;99.90;;;;;;1034352;28;20036;-71
2021/12/18 01:07:05;;;;;;;5.40;4.90;;;17.70;99.90;;;;;;1031665;28;20542;-71
2021/12/18 01:07:36;;;;;;;6.07;5.47;;;17.70;99.90;;;;;;1036005;28;20013;-71
2021/12/18 01:08:07;;;;;;;6.73;5.63;;;17.70;99.90;;;;;;1033928;28;20104;-71
2021/12/18 01:08:38;;;;;;;5.57;5.00;;;17.70;99.90;;;;;;1034702;28;20017;-71
2021/12/18 01:09:09;;;;;;;6.67;5.87;;;17.70;99.90;;;;;;1038053;28;20014;-71
2021/12/18 01:10:36;;;;;;;6.63;5.35;;;17.70;99.90;;;;;;1034264;28;20205;-71
2021/12/18 01:11:29;;;;;;;5.57;5.03;;;17.70;99.90;;;;;;1031814;28;20026;-71
2021/12/18 01:11:59;;;;;;;5.65;4.75;;;17.70;99.90;;;;;;1030925;28;20021;-71
2021/12/18 01:12:38;;;;;;;5.77;5.17;;;17.70;99.90;;;;;;1030668;28;20041;-71
2021/12/18 01:13:12;;;;;;;6.53;5.32;;;17.70;99.90;;;;;;1030463;28;20108;-71
2021/12/18 01:15:48;;;;;;;6.03;5.43;;;17.70;99.90;;;;;;1031815;28;20095;-71
2021/12/18 01:16:16;;;;;;;6.38;5.70;;;17.70;99.90;;;;;;1030019;28;20554;-70
2021/12/18 01:22:53;;;;;;;6.10;5.50;;;17.60;99.90;;;;;;1028190;28;20042;-71
2021/12/18 01:23:24;;;;;;;5.97;5.37;;;17.60;99.90;;;;;;1029166;28;20061;-71
2021/12/18 01:23:54;;;;;;;5.35;4.80;;;17.60;99.90;;;;;;1030016;28;20018;-71
2021/12/18 01:24:25;;;;;;;6.00;5.40;;;17.60;99.90;;;;;;1029625;28;20312;-71
2021/12/18 01:24:55;;;;;;;5.30;4.80;;;17.60;99.90;;;;;;1030130;28;20049;-70
2021/12/18 01:25:26;;;;;;;5.93;5.33;;;17.60;99.90;;;;;;1029022;28;20425;-71
2021/12/18 01:25:57;;;;;;;5.87;5.27;;;17.60;99.90;;;;;;1032474;28;21049;-71
2021/12/18 01:26:27;;;;;;;7.28;5.93;;;17.60;99.90;;;;;;1031059;28;20382;-70
2021/12/18 01:26:58;;;;;;;6.23;5.63;;;17.60;99.90;;;;;;1028116;28;20054;-71
2021/12/18 01:27:29;;;;;;;5.50;4.60;;;17.60;99.90;;;;;;1029580;28;20081;-71
2021/12/18 01:27:59;;;;;;;6.13;5.53;;;17.60;99.90;;;;;;1025758;28;20453;-71
2021/12/18 01:28:31;;;;;;;5.43;4.50;;;17.60;99.90;;;;;;1025363;28;20031;-71
2021/12/18 01:29:02;;;;;;;5.22;4.72;;;17.60;99.90;;;;;;1029264;28;20070;-71
2021/12/18 01:29:35;;;;;;;5.45;4.90;;;17.60;99.90;;;;;;1033075;28;20033;-71
2021/12/18 01:30:09;;;;;;;5.90;5.10;;;17.60;99.90;;;;;;1033389;28;20137;-71
2021/12/18 01:30:40;;;;;;;5.72;4.68;;;17.60;99.90;;;;;;1033054;28;20018;-71
2021/12/18 01:31:11;;;;;;;5.80;5.20;;;17.60;99.90;;;;;;1033526;28;20029;-71
2021/12/18 01:31:41;;;;;;;6.90;5.43;;;17.60;99.90;;;;;;1034351;28;20029;-70
2021/12/18 01:32:12;;;;;;;5.03;4.53;;;17.60;99.90;;;;;;1033621;28;20014;-71
2021/12/18 01:32:43;;;;;;;4.83;4.33;;;17.60;99.90;;;;;;1030221;28;20041;-71
2021/12/18 01:33:13;;;;;;;5.80;5.20;;;17.60;99.90;;;;;;1029140;28;20129;-71
2021/12/18 01:33:44;;;;;;;5.57;4.80;;;17.60;99.90;;;;;;1031028;28;20022;-71
2021/12/18 01:34:14;;;;;;;5.80;5.20;;;17.60;99.90;;;;;;1026874;28;20022;-71
2021/12/18 01:34:46;;;;;;;5.97;5.10;;;17.60;99.90;;;;;;1033251;28;20029;-71
2021/12/18 01:35:16;;;;;;;5.93;5.15;;;17.60;99.90;;;;;;1029570;28;20061;-72
2021/12/18 01:35:48;;;;;;;6.10;5.27;;;17.60;99.90;;;;;;1033687;28;20029;-71
2021/12/18 01:36:20;;;;;;;4.97;4.47;;;17.60;99.90;;;;;;1033564;28;20393;-71
2021/12/18 01:36:51;;;;;;;6.03;5.05;;;17.60;99.90;;;;;;1034480;28;20018;-70
2021/12/18 01:37:21;;;;;;;6.03;5.43;;;17.60;99.90;;;;;;1031226;28;20041;-71
2021/12/18 01:37:52;;;;;;;5.70;4.90;;;17.60;99.90;;;;;;1033215;28;20108;-72
2021/12/18 01:38:23;;;;;;;5.37;4.87;;;17.60;99.90;;;;;;1034913;28;20030;-71
2021/12/18 01:38:55;;;;;;;5.53;5.03;;;17.60;99.90;;;;;;1033395;28;20026;-71
2021/12/18 01:39:26;;;;;;;5.60;5.00;;;17.60;99.90;;;;;;1034258;28;20022;-70
2021/12/18 01:39:57;;;;;;;5.23;4.73;;;17.60;99.90;;;;;;1034706;28;20029;-71
2021/12/18 01:40:28;;;;;;;5.47;4.87;;;17.60;99.90;;;;;;1033559;28;20034;-71
2021/12/18 01:41:00;;;;;;;5.95;4.80;;;17.60;99.90;;;;;;1029646;28;20046;-71
2021/12/18 01:41:39;;;;;;;6.93;5.18;;;17.60;99.90;;;;;;1025235;28;20042;-71
2021/12/18 01:42:59;;;;;;;5.60;4.90;;;17.60;99.90;;;;;;1023685;28;20022;-72
2021/12/18 01:45:08;;;;;;;5.85;4.53;;;17.60;99.90;;;;;;1030286;28;20022;-71
2021/12/18 01:45:59;;;;;;;6.03;4.90;;;17.60;99.90;;;;;;1032607;28;20402;-70
2021/12/18 01:46:43;;;;;;;6.00;4.97;;;17.60;99.90;;;;;;1033610;28;20125;-72
2021/12/18 01:51:21;;;;;;;5.70;5.10;;;17.60;99.90;;;;;;1032421;28;20040;-70
2021/12/18 01:52:04;;;;;;;5.88;5.30;;;17.60;99.90;;;;;;1034520;28;20040;-70
2021/12/18 01:52:35;;;;;;;5.18;4.68;;;17.60;99.90;;;;;;1029552;28;20035;-69
2021/12/18 01:53:07;;;;;;;5.17;4.17;;;17.60;99.90;;;;;;1029472;28;20062;-70
2021/12/18 01:53:37;;;;;;;6.32;4.70;;;17.60;99.90;;;;;;1030768;28;20010;-70
2021/12/18 01:54:08;;;;;;;5.33;4.57;;;17.60;99.90;;;;;;1032687;28;20022;-71
2021/12/18 01:54:40;;;;;;;5.10;4.60;;;17.60;99.90;;;;;;1037091;28;20014;-71
2021/12/18 01:55:11;;;;;;;5.22;4.72;;;17.60;99.90;;;;;;1038000;28;20036;-71
2021/12/18 01:55:44;;;;;;;4.80;4.30;;;17.60;99.90;;;;;;1030737;28;20019;-72
2021/12/18 01:56:14;;;;;;;4.90;4.35;;;17.60;99.90;;;;;;1033876;28;20013;-71
2021/12/18 01:56:45;;;;;;;5.23;4.73;;;17.60;99.90;;;;;;1032857;28;20029;-72
2021/12/18 01:57:15;;;;;;;5.47;4.80;;;17.60;99.90;;;;;;1033675;28;20060;-72
2021/12/18 01:57:46;;;;;;;5.33;4.80;;;17.60;99.90;;;;;;1032138;28;20010;-70
2021/12/18 01:58:21;;;;;;;5.07;4.50;;;17.60;99.90;;;;;;1034226;28;20009;-72
2021/12/18 01:58:54;;;;;;;5.55;5.05;;;17.60;99.90;;;;;;1034483;28;20332;-70
2021/12/18 01:59:37;;;;;;;5.20;4.50;;;17.60;99.90;;;;;;1033998;28;20434;-71
2021/12/18 02:00:34;;;;;;;5.38;4.47;;;17.60;99.90;;;;;;1033935;28;20024;-70
2021/12/18 02:01:05;;;;;;;5.00;4.50;;;17.60;99.90;;;;;;1029517;28;20022;-70
2021/12/18 02:01:36;;;;;;;4.97;4.47;;;17.60;99.90;;;;;;1028128;28;20829;-70
2021/12/18 02:02:06;;;;;;;5.13;4.60;;;17.60;99.90;;;;;;1029211;28;20438;-70
2021/12/18 02:02:37;;;;;;;5.50;4.37;;;17.60;99.90;;;;;;1030420;28;20011;-71
2021/12/18 02:03:08;;;;;;;4.70;4.10;;;17.60;99.90;;;;;;1029788;28;20027;-70
2021/12/18 02:03:40;;;;;;;5.05;4.55;;;17.60;99.90;;;;;;1026589;28;20050;-70
2021/12/18 02:04:10;;;;;;;5.25;4.55;;;17.50;99.90;;;;;;1029724;28;20026;-70
2021/12/18 02:04:41;;;;;;;5.63;4.23;;;17.50;99.90;;;;;;1030059;28;20110;-71
2021/12/18 02:05:11;;;;;;;5.20;4.70;;;17.50;99.90;;;;;;1029699;28;20037;-70
2021/12/18 02:05:42;;;;;;;4.57;4.17;;;17.50;99.90;;;;;;1032151;28;20025;-70
2021/12/18 02:06:13;;;;;;;5.13;4.63;;;17.50;99.90;;;;;;1033595;28;20018;-70
2021/12/18 02:06:44;;;;;;;5.18;4.18;;;17.50;99.90;;;;;;1034398;28;20322;-70
2021/12/18 02:07:15;;;;;;;4.37;3.97;;;17.50;99.90;;;;;;1034516;28;20553;-71
2021/12/18 02:07:46;;;;;;;5.18;4.68;;;17.50;99.90;;;;;;1034527;28;20041;-70
2021/12/18 02:08:23;;;;;;;4.90;4.20;;;17.50;99.90;;;;;;1033986;28;20014;-72
2021/12/18 02:08:54;;;;;;;4.97;4.47;;;17.50;99.90;;;;;;1034268;28;20688;-71
2021/12/18 02:09:30;;;;;;;4.90;4.40;;;17.50;99.90;;;;;;1031260;28;20421;-71
2021/12/18 02:10:42;;;;;;;5.37;4.20;;;17.50;99.90;;;;;;1038434;28;20106;-71
2021/12/18 02:11:53;;;;;;;5.35;4.57;;;17.50;99.90;;;;;;1034912;28;20397;-71
2021/12/18 02:12:30;;;;;;;5.28;3.83;;;17.50;99.90;;;;;;1033476;28;20477;-71
2021/12/18 02:13:09;;;;;;;5.07;4.30;;;17.50;99.90;;;;;;1034203;28;20022;-72
2021/12/18 02:19:36;;;;;;;5.95;4.38;;;17.50;99.90;;;;;;1030685;28;20029;-70
2021/12/18 02:19:56;;;;;;;5.00;4.32;;;17.60;99.90;;;;;;1034676;28;20444;-71
2021/12/18 02:21:13;;;;;;;4.85;4.35;;;17.60;99.90;;;;;;1032063;28;20113;-71
2021/12/18 02:21:44;;;;;;;4.25;3.80;;;17.50;99.90;;;;;;1033174;28;20077;-71
2021/12/18 02:22:16;;;;;;;4.30;3.80;;;17.50;99.90;;;;;;1033251;28;20179;-70
2021/12/18 02:22:46;;;;;;;4.45;3.95;;;17.50;99.90;;;;;;1030566;28;20010;-72
2021/12/18 02:23:18;;;;;;;5.13;4.63;;;17.50;99.90;;;;;;1026038;28;20026;-71
2021/12/18 02:23:49;;;;;;;4.15;3.75;;;17.50;99.90;;;;;;1026579;28;20183;-71
2021/12/18 02:24:23;;;;;;;4.43;4.03;;;17.50;99.90;;;;;;1029602;28;20118;-70
2021/12/18 02:24:54;;;;;;;5.05;4.43;;;17.50;99.90;;;;;;1024503;28;20047;-71
2021/12/18 02:25:25;;;;;;;4.87;4.20;;;17.50;99.90;;;;;;1030943;28;20114;-71
2021/12/18 02:25:56;;;;;;;4.53;3.85;;;17.50;99.90;;;;;;1030195;28;20030;-71
2021/12/18 02:26:26;;;;;;;3.87;3.40;;;17.50;99.90;;;;;;1025837;28;20038;-70
2021/12/18 02:26:58;;;;;;;4.57;3.93;;;17.50;99.90;;;;;;1030225;28;20121;-72
2021/12/18 02:27:30;;;;;;;5.15;4.05;;;17.50;99.90;;;;;;1030180;28;20663;-71
2021/12/18 02:28:01;;;;;;;4.07;3.65;;;17.50;99.90;;;;;;1034276;28;20022;-70
2021/12/18 02:28:32;;;;;;;4.38;3.85;;;17.50;99.90;;;;;;1032956;28;20038;-72
2021/12/18 02:29:05;;;;;;;4.33;3.93;;;17.50;99.90;;;;;;1027186;28;20011;-71
2021/12/18 02:29:38;;;;;;;4.13;3.60;;;17.50;99.90;;;;;;1029647;28;20010;-71
2021/12/18 02:30:11;;;;;;;4.57;4.05;;;17.50;99.90;;;;;;1026504;28;20093;-71
2021/12/18 02:30:42;;;;;;;5.00;4.15;;;17.50;99.90;;;;;;1030427;28;20021;-71
2021/12/18 02:31:15;;;;;;;5.28;4.13;;;17.50;99.90;;;;;;1030097;28;20015;-71
2021/12/18 02:31:46;;;;;;;4.90;4.03;;;17.50;99.90;;;;;;1032298;28;20093;-71
2021/12/18 02:32:20;;;;;;;5.07;4.27;;;17.50;99.90;;;;;;1033857;28;20128;-72
2021/12/18 02:32:52;;;;;;;5.22;4.13;;;17.50;99.90;;;;;;1031391;28;20461;-71
2021/12/18 02:33:25;;;;;;;4.47;3.78;;;17.50;99.90;;;;;;1032136;28;20034;-71
2021/12/18 02:33:56;;;;;;;3.97;3.45;;;17.50;99.90;;;;;;1034268;28;20038;-71
2021/12/18 02:34:30;;;;;;;4.35;3.65;;;17.50;99.90;;;;;;1032203;28;20026;-70
2021/12/18 02:35:05;;;;;;;4.53;3.97;;;17.50;99.90;;;;;;1030867;28;20076;-72
2021/12/18 02:35:43;;;;;;;4.55;3.88;;;17.50;99.90;;;;;;1033851;28;20010;-71
2021/12/18 02:36:22;;;;;;;4.50;3.58;;;17.50;99.90;;;;;;1031839;28;20010;-72
2021/12/18 02:36:59;;;;;;;4.18;3.75;;;17.50;99.90;;;;;;1031919;28;20021;-71
2021/12/18 02:37:30;;;;;;;4.22;3.58;;;17.50;99.90;;;;;;1033846;28;20269;-70
2021/12/18 02:38:15;;;;;;;4.55;3.50;;;17.50;99.90;;;;;;1034338;28;20025;-70
2021/12/18 02:39:42;;;;;;;4.13;3.58;;;17.50;99.90;;;;;;1033529;28;20480;-70
2021/12/18 02:41:37;;;;;;;4.60;3.93;;;17.50;99.90;;;;;;1038485;28;20045;-72
2021/12/18 02:42:19;;;;;;;3.92;3.28;;;17.50;99.90;;;;;;1035142;28;20124;-72
2021/12/18 02:42:51;;;;;;;4.07;3.47;;;17.50;99.90;;;;;;1034894;28;20018;-72
2021/12/18 02:43:34;;;;;;;4.85;3.85;;;17.50;99.90;;;;;;1032685;28;20030;-72
2021/12/18 02:44:08;;;;;;;4.25;3.67;;;17.50;99.90;;;;;;1033282;28;20026;-72
2021/12/18 02:44:39;;;;;;;4.05;3.65;;;17.50;99.90;;;;;;1032083;28;20010;-72
2021/12/18 02:45:12;;;;;;;3.97;3.40;;;17.50;99.90;;;;;;1034045;28;20024;-72
2021/12/18 02:45:43;;;;;;;4.10;3.55;;;17.50;99.90;;;;;;1034685;28;20097;-71
2021/12/18 02:46:19;;;;;;;4.47;3.83;;;17.50;99.90;;;;;;1033767;28;20017;-71
2021/12/18 02:46:49;;;;;;;4.15;3.75;;;17.50;99.90;;;;;;1035200;28;20006;-71
2021/12/18 02:47:20;;;;;;;3.97;3.50;;;17.50;99.90;;;;;;1030982;28;20109;-70
2021/12/18 02:47:53;;;;;;;4.10;3.33;;;17.50;99.90;;;;;;1031663;28;20480;-70
2021/12/18 02:48:24;;;;;;;4.10;3.40;;;17.50;99.90;;;;;;1028742;28;20517;-71
2021/12/18 02:48:56;;;;;;;3.90;3.50;;;17.50;99.90;;;;;;1031406;28;20660;-71
2021/12/18 02:49:28;;;;;;;3.53;2.95;;;17.50;99.90;;;;;;1031362;28;20018;-70
2021/12/18 02:49:58;;;;;;;4.00;3.60;;;17.50;99.90;;;;;;1032897;28;20014;-71
2021/12/18 02:50:29;;;;;;;3.20;2.80;;;17.50;99.90;;;;;;1030452;28;20027;-70
2021/12/18 02:51:00;;;;;;;3.87;3.30;;;17.50;99.90;;;;;;1032696;28;20026;-70
2021/12/18 02:51:31;;;;;;;4.47;3.70;;;17.50;99.90;;;;;;1030495;28;20371;-70
2021/12/18 02:52:02;;;;;;;3.93;3.53;;;17.50;99.90;;;;;;1023609;28;20524;-71
2021/12/18 02:52:33;;;;;;;5.38;3.63;;;17.50;99.90;;;;;;1030267;28;20019;-70
2021/12/18 02:53:05;;;;;;;4.57;3.43;;;17.50;99.90;;;;;;1030671;28;20093;-70
2021/12/18 02:53:37;;;;;;;3.80;3.20;;;17.50;99.90;;;;;;1035196;28;20018;-70
2021/12/18 02:54:08;;;;;;;4.20;3.50;;;17.50;99.90;;;;;;1034793;28;20064;-70
2021/12/18 02:54:40;;;;;;;4.35;3.63;;;17.50;99.90;;;;;;1031387;28;20528;-70
2021/12/18 02:55:11;;;;;;;3.97;3.47;;;17.50;99.90;;;;;;1034547;28;20010;-71
2021/12/18 02:55:42;;;;;;;4.10;3.20;;;17.50;99.90;;;;;;1033970;28;20022;-71
2021/12/18 02:56:14;;;;;;;3.90;3.33;;;17.50;99.90;;;;;;1033620;28;20105;-71
2021/12/18 02:56:45;;;;;;;3.78;3.38;;;17.50;99.90;;;;;;1035499;28;20373;-71
2021/12/18 02:57:15;;;;;;;3.87;3.37;;;17.50;99.90;;;;;;1028896;28;20359;-70
2021/12/18 02:57:46;;;;;;;3.93;3.40;;;17.50;99.90;;;;;;1031213;28;20011;-72
2021/12/18 02:58:16;;;;;;;4.23;3.43;;;17.50;99.90;;;;;;1030540;28;20266;-72
2021/12/18 02:58:48;;;;;;;4.67;3.60;;;17.50;99.90;;;;;;1034809;28;20445;-70
2021/12/18 02:59:19;;;;;;;3.60;3.30;;;17.40;99.90;;;;;;1033790;28;20014;-71
2021/12/18 02:59:52;;;;;;;3.97;3.35;;;17.50;99.90;;;;;;1032411;28;20026;-71
2021/12/18 03:00:25;;;;;;;4.78;3.63;;;17.50;99.90;;;;;;1033757;28;20025;-72
2021/12/18 03:00:57;;;;;;;3.35;2.88;;;17.50;99.90;;;;;;1035919;28;20394;-72
2021/12/18 03:01:28;;;;;;;4.07;3.53;;;17.40;99.90;;;;;;1038904;28;20097;-71
2021/12/18 03:02:02;;;;;;;4.87;4.07;;;17.40;99.90;;;;;;1038459;28;20446;-72
2021/12/18 03:02:38;;;;;;;4.35;3.42;;;17.40;99.90;;;;;;1034341;28;20038;-72
2021/12/18 03:03:10;;;;;;;4.15;3.67;;;17.50;99.90;;;;;;1033648;28;20014;-72
2021/12/18 03:03:42;;;;;;;4.25;3.35;;;17.40;99.90;;;;;;1032811;28;20787;-73
2021/12/18 03:04:29;;;;;;;3.58;3.15;;;17.40;99.90;;;;;;1033794;28;20236;-71
2021/12/18 03:05:05;;;;;;;4.40;3.42;;;17.40;99.90;;;;;;1035381;28;20028;-71
2021/12/18 03:05:44;;;;;;;4.10;3.60;;;17.40;99.90;;;;;;1034715;28;20033;-72
2021/12/18 03:06:36;;;;;;;4.22;3.60;;;17.40;99.90;;;;;;1034127;28;20021;-71
2021/12/18 03:07:09;;;;;;;3.90;3.50;;;17.40;99.90;;;;;;1034280;28;20445;-72
2021/12/18 03:07:40;;;;;;;4.05;3.25;;;17.40;99.90;;;;;;1031658;28;20021;-72
2021/12/18 03:08:18;;;;;;;4.53;3.67;;;17.40;99.90;;;;;;1034060;28;20029;-71
2021/12/18 03:20:05;;;;;;;3.78;3.20;;;17.40;99.90;;;;;;1032713;28;20564;-72
2021/12/18 03:21:46;;;;;;;3.88;3.35;;;17.40;99.90;;;;;;1035097;28;20122;-71
2021/12/18 03:23:08;;;;;;;3.88;3.15;;;17.40;99.90;;;;;;1034878;28;20034;-72
2021/12/18 03:23:56;;;;;;;4.22;3.30;;;17.40;99.90;;;;;;1033969;28;20520;-71
2021/12/18 03:25:16;;;;;;;3.88;3.22;;;17.40;99.90;;;;;;1034266;28;20033;-71
2021/12/18 03:25:24;;;;;;;4.18;3.30;;;17.40;99.90;;;;;;1032573;28;20080;-71
2021/12/18 03:25:59;;;;;;;3.50;3.13;;;17.40;99.90;;;;;;1031954;28;20161;-71
2021/12/18 03:26:29;;;;;;;3.42;2.95;;;17.40;99.90;;;;;;1029740;28;20025;-71
2021/12/18 03:27:00;;;;;;;3.53;3.23;;;17.40;99.90;;;;;;1027816;28;20141;-72
2021/12/18 03:27:31;;;;;;;3.67;3.10;;;17.40;99.90;;;;;;1027295;28;20105;-71
2021/12/18 03:28:04;;;;;;;3.93;3.53;;;17.40;99.90;;;;;;1029907;28;20085;-71
2021/12/18 03:28:34;;;;;;;3.70;3.00;;;17.40;99.90;;;;;;1034524;28;20022;-71
2021/12/18 03:29:05;;;;;;;3.67;3.10;;;17.40;99.90;;;;;;1030696;28;20077;-71